Latest Coastal Weather Observations for Lucinda

IDQ60701

Issued at 7:11 am EST Saturday 10 December 2016 (issued every 10 minutes, with the page automatically refreshed every 10 minutes)

About coastal observations | Map of coastal stations | Coastal observations for QLD | Marine services | Other Formats
Station Details ID: 032141 Name: LUCINDA POINT Lat: -18.52 Lon: 146.39 Height: 10.0 m
Data from the previous 72 hours. | See also: Recent months at Lucinda
Date/Time
EST
Temp
°C
Wind Pressure Rain since
9am
mm
Weather Cloud Vis
km
Sea
Height
m
Swell
Dir  Spd
kts
Gust
kts
hPa Trend Height
m
Period
s
Dir
10/07:00am 27.7 NNE 8 9 1011.8 - 0.0 - - - - - - -
10/06:30am 27.5 NNE 11 13 1011.6 - 0.0 - - - - - - -
10/06:00am 27.2 NNE 13 15 1011.2 - 0.0 - - - - - - -
10/05:30am 27.3 ENE 10 14 1010.9 - 0.0 - - - - - - -
10/05:00am 27.2 ENE 10 13 1010.7 - 0.0 - - - - - - -
10/04:30am 27.2 ENE 11 14 1010.3 - 0.0 - - - - - - -
10/04:00am 27.2 ENE 13 17 1010.0 - 0.0 - - - - - - -
10/03:30am 27.4 ENE 14 17 1009.5 - 0.0 - - - - - - -
10/03:00am 27.3 NE 12 14 1009.6 - 0.0 - - - - - - -
10/02:30am 27.4 NE 13 15 1010.0 - 0.0 - - - - - - -
10/02:00am 27.4 NE 12 15 1009.7 - 0.0 - - - - - - -
10/01:30am 27.6 NNE 13 15 1010.0 - 0.0 - - - - - - -
10/01:00am 27.6 NE 15 17 1010.1 - 0.0 - - - - - - -
10/12:30am 27.6 NE 15 16 1010.3 - 0.0 - - - - - - -
10/12:00am 27.7 NE 13 14 1010.7 - 0.0 - - - - - - -
 
Date/Time
EST
Temp
°C
Wind Pressure Rain since
9am
mm
Weather Cloud Vis
km
Sea
Height
m
Swell
Dir  Spd
kts
Gust
kts
hPa Trend Height
m
Period
s
Dir
09/11:30pm 27.8 N 12 16 1010.8 - 0.0 - - - - - - -
09/11:00pm 27.6 N 12 15 1011.0 - 0.0 - - - - - - -
09/10:30pm 27.8 N 11 15 1011.0 - 0.0 - - - - - - -
09/10:00pm 27.8 N 12 17 1010.7 - 0.0 - - - - - - -
09/09:30pm 27.8 N 14 17 1010.4 - 0.0 - - - - - - -
09/09:00pm 28.0 N 13 15 1010.5 - 0.0 - - - - - - -
09/08:30pm 28.0 N 13 16 1010.3 - 0.0 - - - - - - -
09/08:00pm 28.0 N 12 15 1010.0 - 0.0 - - - - - - -
09/07:30pm 28.0 NNE 12 15 1009.8 - 0.0 - - - - - - -
09/07:00pm 27.9 N 11 14 1009.4 - 0.0 - - - - - - -
09/06:30pm 27.9 NNE 12 14 1009.2 - 0.0 - - - - - - -
09/06:00pm 28.2 NNE 13 15 1008.7 - 0.0 - - - - - - -
09/05:30pm 28.0 NE 14 16 1008.5 - 0.0 - - - - - - -
09/05:00pm 27.9 NE 14 16 1008.4 - 0.0 - - - - - - -
09/04:30pm 28.0 NE 12 14 1008.3 - 0.0 - - - - - - -
09/04:00pm 28.0 NE 12 14 1008.1 - 0.0 - - - - - - -
09/03:30pm 28.0 NE 11 15 1007.9 - 0.0 - - - - - - -
09/03:00pm 28.2 ENE 11 13 1008.1 - 0.0 - - - - - - -
09/02:30pm 28.4 ENE 10 13 1008.3 - 0.0 - - - - - - -
09/02:00pm 28.2 ENE 10 13 1008.6 - 0.0 - - - - - - -
09/01:30pm 28.3 ENE 10 13 1008.9 - 0.0 - - - - - - -
09/01:00pm 28.6 E 8 11 1009.4 - 0.0 - - - - - - -
09/12:30pm 28.0 ENE 10 11 1009.8 - 0.0 - - - - - - -
09/12:00pm 27.7 NE 9 11 1010.0 - 0.0 - - - - - - -
09/11:30am 27.7 NE 9 11 1010.2 - 0.0 - - - - - - -
09/11:00am 27.6 NE 9 11 1010.5 - 0.0 - - - - - - -
09/10:30am 27.8 NNE 7 8 1011.0 - 0.0 - - - - - - -
09/10:00am 28.0 NNE 5 6 1011.2 - 0.0 - - - - - - -
09/09:30am 27.7 NNE 4 6 1011.2 - 0.0 - - - - - - -
09/09:00am 29.1 ESE 3 4 1011.0 - 0.2 - - - - - - -
09/08:30am 29.6 CALM 0 0 1010.8 - 0.2 - - - - - - -
09/08:00am 26.9 CALM 0 0 1010.7 - 0.2 - - - - - - -
09/07:30am 25.8 WSW 5 7 1010.4 - 0.2 - - - - - - -
09/07:00am 25.3 WSW 7 8 1010.4 - 0.2 - - - - - - -
09/06:30am 25.4 WSW 7 9 1010.3 - 0.2 - - - - - - -
09/06:00am 26.9 N 7 9 1009.9 - 0.2 - - - - - - -
09/05:30am 26.5 N 9 12 1009.4 - 0.2 - - - - - - -
09/05:00am 26.5 NNE 9 11 1008.9 - 0.2 - - - - - - -
09/04:30am 26.5 N 9 12 1008.6 - 0.2 - - - - - - -
09/04:00am 26.7 NNE 9 11 1008.6 - 0.2 - - - - - - -
09/03:30am 26.6 NNE 8 10 1008.5 - 0.2 - - - - - - -
09/03:00am 26.7 NNE 9 11 1008.5 - 0.2 - - - - - - -
09/02:30am 26.9 NNE 8 11 1008.6 - 0.2 - - - - - - -
09/02:00am 27.0 NNE 10 13 1008.7 - 0.2 - - - - - - -
09/01:30am 26.9 NE 11 14 1008.9 - 0.2 - - - - - - -
09/01:00am 27.0 NNE 10 12 1009.3 - 0.2 - - - - - - -
09/12:30am 27.0 NNE 9 12 1009.7 - 0.2 - - - - - - -
09/12:00am 27.1 NNE 11 13 1010.1 - 0.2 - - - - - - -
 
Date/Time
EST
Temp
°C
Wind Pressure Rain since
9am
mm
Weather Cloud Vis
km
Sea
Height
m
Swell
Dir  Spd
kts
Gust
kts
hPa Trend Height
m
Period
s
Dir
08/11:30pm 27.1 NE 12 15 1010.5 - 0.2 - - - - - - -
08/11:00pm 27.4 NE 12 14 1010.7 - 0.2 - - - - - - -
08/10:30pm 27.4 NE 13 15 1010.7 - 0.2 - - - - - - -
08/10:00pm 27.5 NE 13 14 1010.7 - 0.2 - - - - - - -
08/09:30pm 27.6 NNE 11 13 1010.5 - 0.2 - - - - - - -
08/09:00pm 27.4 NE 12 14 1010.2 - 0.2 - - - - - - -
08/08:30pm 27.3 NE 12 14 1009.8 - 0.2 - - - - - - -
08/08:00pm 27.4 NNE 11 13 1009.7 - 0.2 - - - - - - -
08/07:30pm 27.6 NNE 12 15 1009.4 - 0.2 - - - - - - -
08/07:00pm 27.6 NNE 13 15 1008.9 - 0.2 - - - - - - -
08/06:30pm 27.6 NNE 13 15 1008.6 - 0.2 - - - - - - -
08/06:00pm 27.7 NE 14 16 1008.4 - 0.2 - - - - - - -
08/05:30pm 27.9 NE 13 15 1008.1 - 0.2 - - - - - - -
08/05:00pm 27.7 NE 13 16 1008.0 - 0.2 - - - - - - -
08/04:30pm 27.8 NNE 14 16 1007.9 - 0.2 - - - - - - -
08/04:00pm 27.9 NNE 14 17 1008.1 - 0.2 - - - - - - -
08/03:30pm 27.6 NE 14 15 1008.2 - 0.2 - - - - - - -
08/03:00pm 27.6 NE 13 16 1008.4 - 0.2 - - - - - - -
08/02:30pm 27.7 NE 14 17 1008.5 - 0.2 - - - - - - -
08/02:00pm 27.8 NE 14 16 1008.7 - 0.2 - - - - - - -
08/01:30pm 28.0 ENE 13 16 1009.1 - 0.2 - - - - - - -
08/01:00pm 28.2 ENE 11 13 1009.3 - 0.2 - - - - - - -
08/12:30pm 27.7 ENE 12 14 1009.7 - 0.2 - - - - - - -
08/12:00pm 27.9 NE 12 14 1010.1 - 0.2 - - - - - - -
08/11:30am 27.7 NE 11 13 1010.4 - 0.2 - - - - - - -
08/11:00am 28.2 ENE 12 15 1010.8 - 0.2 - - - - - - -
08/10:30am 28.4 ENE 10 14 1010.9 - 0.2 - - - - - - -
08/10:00am 27.6 NE 12 13 1011.0 - 0.0 - - - - - - -
08/09:30am 27.7 NE 11 13 1011.0 - 0.0 - - - - - - -
08/09:00am 27.9 NNE 8 11 1011.2 - 0.6 - - - - - - -
08/08:30am 27.9 N 9 11 1010.9 - 0.6 - - - - - - -
08/08:00am 28.1 N 8 10 1010.9 - 0.6 - - - - - - -
08/07:30am 27.5 NNE 8 11 1010.7 - 0.6 - - - - - - -
08/07:00am 27.5 N 10 13 1010.3 - 0.6 - - - - - - -
08/06:30am 27.1 NNE 13 15 1010.3 - 0.6 - - - - - - -
08/06:00am 27.2 NNE 11 12 1010.2 - 0.6 - - - - - - -
08/05:30am 27.2 NNE 10 13 1010.0 - 0.6 - - - - - - -
08/05:00am 27.0 NE 11 14 1009.7 - 0.6 - - - - - - -
08/04:30am 27.2 NE 10 12 1009.6 - 0.6 - - - - - - -
08/04:00am 27.1 NNE 11 13 1009.5 - 0.6 - - - - - - -
08/03:30am 27.0 NE 12 14 1009.4 - 0.6 - - - - - - -
08/03:00am 27.0 NE 9 11 1009.4 - 0.6 - - - - - - -
08/02:30am 27.0 ENE 10 12 1009.5 - 0.6 - - - - - - -
08/02:00am 26.9 NE 10 12 1009.5 - 0.6 - - - - - - -
08/01:30am 27.0 NE 9 11 1009.8 - 0.6 - - - - - - -
08/01:00am 27.1 E 8 10 1010.1 - 0.6 - - - - - - -
08/12:30am 27.2 ENE 8 10 1010.5 - 0.6 - - - - - - -
08/12:00am 27.2 E 9 11 1010.9 - 0.6 Recent precip. - - - - - -
 
Date/Time
EST
Temp
°C
Wind Pressure Rain since
9am
mm
Weather Cloud Vis
km
Sea
Height
m
Swell
Dir  Spd
kts
Gust
kts
hPa Trend Height
m
Period
s
Dir
07/11:30pm 27.1 E 10 13 1011.2 - 0.6 - - - - - - -
07/11:00pm 27.4 E 8 11 1011.6 - 0.0 - - - - - - -
07/10:30pm 27.3 E 9 12 1011.5 - 0.0 - - - - - - -
07/10:00pm 27.4 E 9 12 1011.4 - 0.0 - - - - - - -
07/09:30pm 27.4 E 9 13 1011.2 - 0.0 - - - - - - -
07/09:00pm 27.3 ENE 9 12 1011.0 - 0.0 - - - - - - -
07/08:30pm 27.3 ENE 10 12 1011.0 - 0.0 - - - - - - -
07/08:00pm 27.3 ENE 10 13 1011.0 - 0.0 - - - - - - -
07/07:30pm 27.3 ENE 9 11 1011.1 - 0.0 - - - - - - -
07/07:00pm 27.3 E 8 10 1011.1 - 0.0 - - - - - - -
07/06:30pm 27.4 E 8 11 1011.1 - 0.0 - - - - - - -
07/06:00pm 27.6 E 10 13 1011.1 - 0.0 - - - - - - -
07/05:30pm 28.1 ESE 8 12 1010.9 - 0.0 - - - - - - -
07/05:00pm 28.2 ESE 9 12 1010.7 - 0.0 - - - - - - -
07/04:30pm 27.7 E 9 13 1010.6 - 0.0 - - - - - - -
07/04:00pm 28.1 ESE 10 14 1010.6 - 0.0 - - - - - - -
07/03:30pm 28.1 ESE 8 13 1010.6 - 0.0 - - - - - - -
07/03:00pm 28.0 E 10 13 1010.7 - 0.0 - - - - - - -
07/02:30pm 28.1 E 10 13 1010.8 - 0.0 - - - - - - -
07/02:00pm 28.6 ESE 10 14 1010.8 - 0.0 - - - - - - -
07/01:30pm 28.2 E 11 14 1011.2 - 0.0 - - - - - - -
07/01:00pm 28.4 ESE 10 13 1011.7 - 0.0 - - - - - - -
07/12:30pm 28.0 ESE 10 13 1011.8 - 0.0 - - - - - - -
07/12:00pm 28.0 ESE 10 12 1012.0 - 0.0 - - - - - - -
07/11:30am 28.3 E 9 11 1012.0 - 0.0 - - - - - - -
07/11:00am 28.0 E 9 12 1012.1 - 0.0 - - - - - - -
07/10:30am 28.0 E 9 11 1012.3 - 0.0 - - - - - - -
07/10:00am 28.3 E 7 9 1012.3 - 0.0 - - - - - - -
07/09:30am 28.0 ENE 8 9 1012.4 - 0.0 - - - - - - -
07/09:00am 27.6 NE 6 7 1012.3 - 0.0 - - - - - - -
07/08:30am 28.2 NE 6 8 1012.3 - 0.0 - - - - - - -
07/08:00am 27.2 NNE 8 11 1012.1 - 0.0 - - - - - - -
07/07:30am 27.3 NNE 9 11 1012.1 - 0.0 - - - - - - -

Other Formats:

Comma delimited format used in spreadsheet applications
http://www.bom.gov.au/fwo/IDQ60701/IDQ60701.94295.axf

JavaScript Object Notation format (JSON) in row-major order
http://www.bom.gov.au/fwo/IDQ60701/IDQ60701.94295.json